Time;durP1;ratioP1;P1;durP2;ratioP2;P2;SDS_P1;SDS_P2;PMS_P1;PMS_P2;Temp;Humidity;BMP_temperature;BMP_pressure;BME280_temperature;BME280_humidity;BME280_pressure;Samples;Min_cycle;Max_cycle;Signal;HPM_P1;HPM_P2
2022/04/08 00:01:38;;;;;;;35.35;23.85;;;12.10;87.80;;;;;;4936610;29;20102;-80
2022/04/08 00:04:04;;;;;;;38.17;25.70;;;12.20;87.70;;;;;;4937891;29;20477;-80
2022/04/08 00:06:30;;;;;;;35.30;26.80;;;12.30;87.40;;;;;;4920291;29;20047;-81
2022/04/08 00:08:56;;;;;;;35.35;27.48;;;12.30;87.10;;;;;;4937148;29;20122;-81
2022/04/08 00:11:21;;;;;;;33.80;25.92;;;12.30;87.10;;;;;;4936951;29;20604;-81
2022/04/08 00:13:51;;;;;;;36.45;28.58;;;12.30;87.00;;;;;;4937751;29;20043;-79
2022/04/08 00:16:16;;;;;;;33.53;24.60;;;12.40;86.80;;;;;;4937163;29;20043;-79
2022/04/08 00:18:42;;;;;;;43.00;29.13;;;12.40;86.80;;;;;;4937321;29;20040;-80
2022/04/08 00:21:08;;;;;;;38.08;29.88;;;12.40;86.30;;;;;;4920530;29;20055;-81
2022/04/08 00:23:34;;;;;;;45.70;32.25;;;12.30;86.70;;;;;;4937452;29;20032;-80
2022/04/08 00:26:00;;;;;;;44.85;32.80;;;12.20;87.10;;;;;;4936740;29;20040;-80
2022/04/08 00:28:26;;;;;;;36.45;30.20;;;12.10;87.40;;;;;;4937404;29;20417;-81
2022/04/08 00:30:51;;;;;;;42.80;31.02;;;12.10;87.90;;;;;;4937172;29;20035;-80
2022/04/08 00:33:17;;;;;;;44.45;34.75;;;12.00;88.10;;;;;;4936202;29;20051;-80
2022/04/08 00:35:43;;;;;;;39.75;29.45;;;11.80;88.80;;;;;;4936895;29;20366;-79
2022/04/08 00:38:08;;;;;;;35.22;27.27;;;11.80;89.20;;;;;;4936043;29;20123;-80
2022/04/08 00:40:34;;;;;;;34.30;25.67;;;11.90;88.80;;;;;;4936655;29;20039;-80
2022/04/08 00:43:30;;;;;;;47.38;32.72;;;12.10;88.40;;;;;;4936522;29;20043;-80
2022/04/08 00:45:56;;;;;;;34.42;26.27;;;12.10;87.60;;;;;;4930990;29;20102;-80
2022/04/08 00:48:21;;;;;;;43.70;32.75;;;12.10;87.40;;;;;;4936197;29;20481;-80
2022/04/08 00:50:47;;;;;;;42.17;32.67;;;12.10;87.70;;;;;;4937413;29;20047;-80
2022/04/08 00:53:13;;;;;;;42.28;31.52;;;12.10;87.80;;;;;;4935594;29;20401;-80
2022/04/08 00:55:39;;;;;;;41.78;32.70;;;12.00;87.90;;;;;;4936683;29;20078;-81
2022/04/08 00:58:05;;;;;;;44.30;32.80;;;12.00;88.40;;;;;;4936354;29;20051;-79
2022/04/08 01:00:36;;;;;;;42.45;31.17;;;11.90;88.40;;;;;;4936348;29;20052;-80
2022/04/08 01:03:03;;;;;;;38.03;31.50;;;11.90;88.10;;;;;;4935389;29;20110;-80
2022/04/08 01:05:29;;;;;;;39.67;31.30;;;12.00;88.30;;;;;;4936389;29;20417;-79
2022/04/08 01:07:55;;;;;;;43.70;32.35;;;12.00;88.00;;;;;;4932188;29;20024;-79
2022/04/08 01:10:21;;;;;;;46.47;34.97;;;11.90;88.20;;;;;;4918683;29;20362;-79
2022/04/08 01:12:49;;;;;;;49.97;35.13;;;11.90;88.30;;;;;;4935348;29;20049;-79
2022/04/08 01:15:17;;;;;;;46.85;34.70;;;11.80;88.70;;;;;;4918484;29;20397;-79
2022/04/08 01:17:42;;;;;;;44.13;34.25;;;11.80;88.90;;;;;;4936045;29;20048;-79
2022/04/08 01:20:08;;;;;;;43.90;33.38;;;11.70;88.90;;;;;;4935885;29;20043;-79
2022/04/08 01:22:35;;;;;;;46.25;34.92;;;11.70;88.80;;;;;;4935113;29;20054;-80
2022/04/08 01:25:05;;;;;;;36.80;28.02;;;11.80;88.80;;;;;;4936112;29;20040;-80
2022/04/08 01:27:32;;;;;;;46.10;34.67;;;11.80;88.50;;;;;;4933983;29;20043;-79
2022/04/08 01:29:58;;;;;;;43.92;32.15;;;11.80;88.20;;;;;;4918813;29;20032;-79
2022/04/08 01:32:24;;;;;;;39.38;31.95;;;11.80;88.10;;;;;;4935227;29;20047;-81
2022/04/08 01:34:50;;;;;;;39.88;31.67;;;11.90;88.00;;;;;;4918356;29;20047;-81
2022/04/08 01:37:16;;;;;;;46.13;36.20;;;12.00;87.70;;;;;;4935701;29;20047;-80
2022/04/08 01:39:42;;;;;;;46.70;35.05;;;12.00;87.50;;;;;;4935875;29;20036;-81
2022/04/08 01:42:08;;;;;;;46.17;34.50;;;11.90;87.70;;;;;;4935443;29;20502;-80
2022/04/08 01:44:38;;;;;;;42.65;36.17;;;11.80;88.30;;;;;;4935436;29;20047;-80
2022/04/08 01:47:04;;;;;;;42.20;33.33;;;11.80;87.90;;;;;;4932112;29;20119;-80
2022/04/08 01:49:30;;;;;;;42.33;33.55;;;11.90;88.00;;;;;;4935373;29;20428;-80
2022/04/08 01:51:56;;;;;;;49.83;37.45;;;11.90;87.90;;;;;;4935239;29;20036;-79
2022/04/08 01:54:22;;;;;;;45.70;35.58;;;11.90;88.10;;;;;;4935853;29;20054;-78
2022/04/08 01:56:48;;;;;;;46.97;37.33;;;11.80;88.20;;;;;;4918289;29;20040;-80
2022/04/08 01:59:14;;;;;;;48.13;37.00;;;11.80;88.40;;;;;;4934770;29;20389;-79
2022/04/08 02:01:39;;;;;;;48.78;36.92;;;11.70;88.40;;;;;;4916519;29;20036;-79
2022/04/08 02:04:05;;;;;;;45.50;33.72;;;11.70;88.60;;;;;;4934916;29;20047;-79
2022/04/08 02:06:32;;;;;;;51.45;38.22;;;11.80;88.50;;;;;;4935054;29;20047;-79
2022/04/08 02:08:58;;;;;;;44.92;37.08;;;11.80;88.80;;;;;;4935794;29;20047;-79
2022/04/08 02:11:24;;;;;;;46.33;35.33;;;11.80;88.30;;;;;;4935201;29;20551;-79
2022/04/08 02:13:51;;;;;;;46.10;36.75;;;11.80;88.20;;;;;;4933861;29;20051;-79
2022/04/08 02:16:17;;;;;;;48.10;36.15;;;11.80;88.30;;;;;;4934668;29;20083;-80
2022/04/08 02:18:42;;;;;;;49.03;36.95;;;11.80;88.30;;;;;;4935111;29;20040;-79
2022/04/08 02:21:11;;;;;;;54.80;38.97;;;11.80;88.30;;;;;;4934683;29;20086;-79
2022/04/08 02:23:37;;;;;;;53.35;39.38;;;11.70;88.50;;;;;;4934533;29;20046;-78
2022/04/08 02:26:05;;;;;;;49.50;38.40;;;11.70;88.50;;;;;;4934995;29;20047;-79
2022/04/08 02:28:32;;;;;;;56.85;40.08;;;11.70;88.50;;;;;;4934343;29;20036;-80
2022/04/08 02:30:58;;;;;;;48.13;39.63;;;11.60;88.80;;;;;;4931352;29;20036;-79
2022/04/08 02:33:24;;;;;;;48.40;37.72;;;11.60;89.10;;;;;;4933916;29;20047;-80
2022/04/08 02:35:50;;;;;;;53.13;41.10;;;11.60;89.00;;;;;;4934671;29;20031;-79
2022/04/08 02:38:15;;;;;;;54.10;41.38;;;11.60;89.00;;;;;;4935625;29;20086;-80
2022/04/08 02:40:41;;;;;;;56.50;43.08;;;11.60;89.10;;;;;;4934977;29;20048;-79
2022/04/08 02:43:07;;;;;;;52.33;41.13;;;11.60;89.10;;;;;;4933988;29;20040;-79
2022/04/08 02:45:32;;;;;;;57.42;42.70;;;11.60;89.40;;;;;;4934618;29;20397;-80
2022/04/08 02:47:58;;;;;;;55.85;42.25;;;11.60;89.40;;;;;;4934060;29;20135;-79
2022/04/08 02:50:24;;;;;;;48.75;38.97;;;11.60;89.20;;;;;;4935052;29;20136;-79
2022/04/08 02:52:49;;;;;;;52.47;41.20;;;11.60;89.30;;;;;;4934880;29;20091;-79
2022/04/08 02:55:15;;;;;;;48.38;37.95;;;11.60;89.10;;;;;;4934383;29;20088;-78
2022/04/08 02:57:45;;;;;;;54.25;41.83;;;11.60;88.90;;;;;;4934306;29;20044;-78
2022/04/08 03:00:15;;;;;;;50.30;37.15;;;11.60;88.50;;;;;;4934948;29;20055;-70
2022/04/08 03:02:41;;;;;;;;;;;11.60;88.60;;;;;;4934750;29;20063;-71
2022/04/08 03:05:07;;;;;;;45.15;33.80;;;11.70;88.40;;;;;;4934804;29;19957;-71
2022/04/08 03:07:33;;;;;;;51.35;40.17;;;11.70;88.80;;;;;;4932048;29;20071;-70
2022/04/08 03:09:59;;;;;;;52.03;37.50;;;11.70;88.10;;;;;;4933628;29;20520;-70
2022/04/08 03:12:24;;;;;;;49.00;37.25;;;11.70;88.10;;;;;;4933849;29;20083;-71
2022/04/08 03:14:50;;;;;;;49.78;36.78;;;11.80;88.00;;;;;;4934758;29;20373;-70
2022/04/08 03:17:16;;;;;;;48.95;36.40;;;11.80;87.80;;;;;;4932954;29;20051;-71
2022/04/08 03:19:41;;;;;;;48.58;35.90;;;11.90;87.50;;;;;;4934272;29;20047;-70
2022/04/08 03:22:07;;;;;;;54.85;42.20;;;11.90;87.70;;;;;;4933585;29;20040;-70
2022/04/08 03:24:33;;;;;;;51.53;42.47;;;11.80;87.40;;;;;;4933401;29;20040;-69
2022/04/08 03:26:58;;;;;;;51.72;38.05;;;11.70;87.90;;;;;;4935112;29;20508;-69
2022/04/08 03:29:24;;;;;;;47.60;37.72;;;11.70;87.90;;;;;;4935862;29;20081;-70
2022/04/08 03:31:50;;;;;;;59.05;44.28;;;11.70;87.90;;;;;;4937109;29;20508;-70
2022/04/08 03:34:15;;;;;;;59.05;45.53;;;11.70;88.10;;;;;;4936722;29;20046;-69
2022/04/08 03:36:41;;;;;;;53.90;42.45;;;11.60;88.30;;;;;;4935746;29;20047;-69
2022/04/08 03:39:08;;;;;;;56.47;45.08;;;11.50;88.60;;;;;;4935725;29;20044;-69
2022/04/08 03:41:34;;;;;;;55.03;42.10;;;11.40;89.10;;;;;;4937111;29;20043;-70
2022/04/08 03:44:00;;;;;;;60.90;43.55;;;11.40;89.50;;;;;;4936956;29;20043;-70
2022/04/08 03:46:26;;;;;;;53.90;42.03;;;11.40;89.20;;;;;;4936213;29;20039;-70
2022/04/08 03:48:51;;;;;;;54.00;41.88;;;11.40;88.80;;;;;;4936829;29;20568;-69
2022/04/08 03:51:17;;;;;;;59.28;45.05;;;11.40;89.40;;;;;;4936561;29;20064;-70
2022/04/08 03:53:43;;;;;;;56.40;43.05;;;11.40;89.10;;;;;;4935761;29;20067;-69
2022/04/08 03:56:08;;;;;;;53.50;40.60;;;11.40;89.20;;;;;;4934643;29;20048;-69
2022/04/08 03:58:34;;;;;;;54.92;42.33;;;11.40;89.00;;;;;;4936253;29;20488;-70
2022/04/08 04:01:00;;;;;;;57.67;46.35;;;11.40;88.80;;;;;;4930975;29;20036;-70
2022/04/08 04:03:35;;;;;;;54.47;43.97;;;11.40;89.20;;;;;;4916834;29;20051;-70
2022/04/08 04:06:03;;;;;;;60.05;46.17;;;11.30;89.60;;;;;;4917456;29;20032;-70
2022/04/08 04:08:29;;;;;;;63.28;47.42;;;11.20;90.00;;;;;;4919457;29;20044;-78
2022/04/08 04:10:55;;;;;;;53.78;40.75;;;11.10;90.00;;;;;;4936457;29;20099;-77
2022/04/08 04:13:20;;;;;;;67.45;51.60;;;11.20;90.10;;;;;;4934973;29;20107;-78
2022/04/08 04:15:46;;;;;;;63.10;49.50;;;11.10;89.90;;;;;;4934220;29;20039;-70
2022/04/08 04:18:12;;;;;;;62.97;46.30;;;11.00;90.30;;;;;;4935036;29;20392;-77
2022/04/08 04:20:37;;;;;;;62.25;45.45;;;11.00;90.40;;;;;;4935680;29;20496;-77
2022/04/08 04:23:03;;;;;;;57.85;44.97;;;11.00;90.40;;;;;;4935244;29;20464;-77
2022/04/08 04:25:29;;;;;;;72.35;54.38;;;11.00;90.20;;;;;;4936204;29;20047;-77
2022/04/08 04:27:57;;;;;;;70.53;51.97;;;10.90;90.30;;;;;;4934769;29;20040;-78
2022/04/08 04:30:27;;;;;;;66.72;49.75;;;10.70;90.70;;;;;;4934943;29;20512;-79
2022/04/08 04:32:53;;;;;;;69.30;52.95;;;10.70;90.90;;;;;;4935787;29;20563;-79
2022/04/08 04:35:19;;;;;;;68.03;47.60;;;10.60;91.10;;;;;;4933895;29;20122;-79
2022/04/08 04:37:44;;;;;;;60.75;46.45;;;10.60;91.40;;;;;;4935798;29;20141;-79
2022/04/08 04:40:11;;;;;;;66.38;48.20;;;10.70;91.10;;;;;;4936519;29;20381;-69
2022/04/08 04:42:36;;;;;;;69.65;47.90;;;10.80;90.90;;;;;;4936262;29;20051;-69
2022/04/08 04:45:02;;;;;;;60.92;47.47;;;10.80;90.90;;;;;;4936020;29;20052;-70
2022/04/08 04:47:28;;;;;;;60.35;47.15;;;10.80;90.70;;;;;;4935110;29;20062;-70
2022/04/08 04:49:53;;;;;;;65.22;48.13;;;10.90;90.70;;;;;;4936670;29;20040;-70
2022/04/08 04:52:19;;;;;;;59.63;45.20;;;10.90;90.90;;;;;;4936096;29;20040;-69
2022/04/08 04:54:45;;;;;;;63.45;49.50;;;11.00;90.50;;;;;;4935864;29;20126;-70
2022/04/08 04:57:10;;;;;;;60.65;47.08;;;10.80;90.50;;;;;;4936086;29;20067;-69
2022/04/08 04:59:36;;;;;;;68.85;51.10;;;10.90;90.60;;;;;;4936299;29;20042;-70
2022/04/08 05:02:01;;;;;;;62.08;47.17;;;10.90;90.40;;;;;;4935317;29;20038;-69
2022/04/08 05:04:27;;;;;;;65.18;48.03;;;10.90;90.60;;;;;;4934642;29;20668;-69
2022/04/08 05:06:54;;;;;;;65.28;49.00;;;10.90;90.60;;;;;;4935882;29;20135;-69
2022/04/08 05:09:19;;;;;;;68.18;51.53;;;10.90;90.60;;;;;;4936248;29;20050;-69
2022/04/08 05:11:45;;;;;;;58.88;45.65;;;10.70;90.60;;;;;;4934062;29;20366;-69
2022/04/08 05:14:11;;;;;;;63.15;44.40;;;10.80;90.80;;;;;;4936357;29;20110;-69
2022/04/08 05:16:38;;;;;;;60.03;43.80;;;10.90;90.60;;;;;;4935048;29;20122;-70
2022/04/08 05:19:03;;;;;;;57.60;42.40;;;11.10;90.40;;;;;;4935991;29;20074;-70
2022/04/08 05:21:29;;;;;;;56.88;43.53;;;11.20;90.20;;;;;;4935770;29;20647;-70
2022/04/08 05:23:55;;;;;;;57.42;41.33;;;11.20;90.10;;;;;;4935506;29;20128;-70
2022/04/08 05:26:22;;;;;;;65.03;46.28;;;11.20;89.90;;;;;;4934437;29;20054;-70
2022/04/08 05:28:47;;;;;;;55.92;41.30;;;11.20;89.70;;;;;;4935692;29;20043;-70
2022/04/08 05:31:13;;;;;;;61.90;44.88;;;11.20;89.70;;;;;;4935519;29;20361;-74
2022/04/08 05:33:40;;;;;;;59.88;45.10;;;11.20;90.00;;;;;;4916743;29;20386;-70
2022/04/08 05:36:06;;;;;;;61.50;46.40;;;11.10;89.70;;;;;;4934572;29;20036;-70
2022/04/08 05:38:32;;;;;;;54.45;42.05;;;11.20;89.80;;;;;;4918542;29;20039;-70
2022/04/08 05:40:58;;;;;;;56.10;42.42;;;11.20;89.80;;;;;;4935133;29;20050;-70
2022/04/08 05:43:24;;;;;;;53.22;40.45;;;11.30;89.60;;;;;;4917703;29;20039;-69
2022/04/08 05:45:49;;;;;;;50.53;39.00;;;11.40;89.50;;;;;;4934568;29;20058;-70
2022/04/08 05:48:15;;;;;;;59.70;40.35;;;11.50;89.40;;;;;;4933010;29;20039;-70
2022/04/08 05:50:40;;;;;;;57.75;43.97;;;11.60;89.20;;;;;;4932834;29;20086;-78
2022/04/08 05:53:06;;;;;;;54.72;41.33;;;11.70;88.50;;;;;;4934788;29;21717;-79
2022/04/08 05:55:35;;;;;;;51.13;40.10;;;11.70;88.40;;;;;;4934139;29;20075;-79
2022/04/08 05:58:00;;;;;;;48.35;39.17;;;11.80;88.30;;;;;;4935282;29;20046;-78
2022/04/08 06:00:27;;;;;;;53.72;39.85;;;11.90;88.40;;;;;;4934002;29;20040;-79
2022/04/08 06:02:55;;;;;;;56.15;42.63;;;12.10;88.30;;;;;;4916868;29;20046;-79
2022/04/08 06:05:21;;;;;;;54.25;42.22;;;12.10;88.10;;;;;;4934586;29;20380;-80
2022/04/08 06:07:52;;;;;;;57.92;42.63;;;12.20;87.90;;;;;;4933231;29;20040;-79
2022/04/08 06:10:20;;;;;;;56.58;41.83;;;12.20;87.70;;;;;;4934767;29;20043;-79
2022/04/08 06:12:46;;;;;;;54.33;43.03;;;12.20;87.50;;;;;;4934259;29;20047;-70
2022/04/08 06:15:12;;;;;;;57.05;42.88;;;12.30;87.50;;;;;;4917665;29;20067;-79
2022/04/08 06:17:39;;;;;;;62.05;47.25;;;12.30;87.30;;;;;;4933414;29;20117;-80
2022/04/08 06:20:06;;;;;;;68.38;47.72;;;12.30;87.30;;;;;;4934524;29;20688;-70
2022/04/08 06:22:32;;;;;;;61.92;45.92;;;12.30;87.40;;;;;;4934445;29;20404;-69
2022/04/08 06:24:58;;;;;;;87.80;43.58;;;12.30;87.40;;;;;;4934490;29;20035;-80
2022/04/08 06:27:23;;;;;;;59.30;46.15;;;12.30;87.80;;;;;;4933347;29;20040;-80
2022/04/08 06:29:49;;;;;;;59.60;45.75;;;12.30;87.10;;;;;;4937771;29;20091;-80
2022/04/08 06:32:15;;;;;;;56.35;43.40;;;12.40;86.80;;;;;;4938827;29;20429;-80
2022/04/08 06:34:40;;;;;;;59.20;45.97;;;12.40;87.20;;;;;;4933770;29;20531;-70
2022/04/08 06:37:08;;;;;;;56.55;44.10;;;12.50;86.10;;;;;;4935307;29;20052;-79
2022/04/08 06:39:34;;;;;;;62.33;47.70;;;12.50;85.90;;;;;;4935011;29;20388;-70
2022/04/08 06:41:59;;;;;;;55.45;43.15;;;12.50;86.40;;;;;;4934360;29;20044;-72
2022/04/08 06:44:25;;;;;;;57.67;45.10;;;12.50;86.30;;;;;;4934131;29;20454;-70
2022/04/08 06:46:51;;;;;;;53.80;41.10;;;12.60;86.00;;;;;;4934801;29;20039;-70
2022/04/08 06:49:19;;;;;;;55.33;43.20;;;12.60;85.80;;;;;;4934780;29;20042;-70
2022/04/08 06:51:45;;;;;;;55.05;42.22;;;12.60;85.40;;;;;;4935178;29;20032;-70
2022/04/08 06:54:10;;;;;;;53.38;40.95;;;12.70;85.40;;;;;;4936227;29;20512;-71
2022/04/08 06:56:36;;;;;;;47.88;37.70;;;12.90;85.70;;;;;;4933111;29;20095;-70
2022/04/08 06:59:02;;;;;;;45.17;35.60;;;12.90;85.70;;;;;;4933679;29;20043;-70
2022/04/08 07:01:29;;;;;;;45.20;34.80;;;13.10;85.40;;;;;;4935137;29;20432;-71
2022/04/08 07:03:55;;;;;;;51.28;38.22;;;13.20;85.00;;;;;;4937303;29;20067;-70
2022/04/08 07:06:21;;;;;;;48.80;36.40;;;13.40;84.50;;;;;;4939020;29;20070;-79
2022/04/08 07:08:47;;;;;;;38.67;32.10;;;13.40;83.00;;;;;;4935242;29;20028;-78
2022/04/08 07:11:13;;;;;;;39.40;31.63;;;13.40;83.10;;;;;;4935242;29;20449;-78
2022/04/08 07:13:41;;;;;;;35.78;28.83;;;13.50;83.50;;;;;;4931872;29;20087;-78
2022/04/08 07:16:08;;;;;;;33.88;28.73;;;13.60;82.80;;;;;;4927205;29;20043;-78
2022/04/08 07:18:33;;;;;;;38.38;29.55;;;13.70;83.30;;;;;;4932061;29;20035;-80
2022/04/08 07:20:59;;;;;;;41.65;29.80;;;13.70;82.40;;;;;;4929202;29;20058;-77
2022/04/08 07:23:25;;;;;;;35.40;27.75;;;13.80;82.00;;;;;;4933766;29;20035;-78
2022/04/08 07:25:51;;;;;;;35.47;26.90;;;13.80;82.20;;;;;;4931155;29;20032;-79
2022/04/08 07:28:17;;;;;;;34.05;24.85;;;14.00;82.00;;;;;;4935511;29;20036;-79
2022/04/08 07:30:43;;;;;;;38.15;28.15;;;14.00;80.90;;;;;;4935390;29;20384;-71
2022/04/08 07:33:09;;;;;;;32.90;24.52;;;14.00;81.80;;;;;;4938656;29;20032;-71
2022/04/08 07:35:37;;;;;;;37.65;27.98;;;14.10;81.70;;;;;;4938265;29;20448;-71
2022/04/08 07:38:05;;;;;;;35.33;27.05;;;14.00;80.80;;;;;;4938502;29;20067;-73
2022/04/08 07:40:31;;;;;;;59.33;44.88;;;14.00;80.70;;;;;;4938485;29;20039;-71
2022/04/08 07:42:57;;;;;;;312.88;248.43;;;14.10;81.40;;;;;;4938047;29;20068;-71
2022/04/08 07:45:27;;;;;;;130.20;104.70;;;14.10;81.70;;;;;;4938526;29;20044;-71
2022/04/08 07:47:55;;;;;;;33.95;25.48;;;14.20;81.80;;;;;;4938674;29;20095;-72
2022/04/08 07:50:21;;;;;;;29.90;19.02;;;14.20;81.80;;;;;;4938452;29;20580;-72
2022/04/08 07:52:47;;;;;;;23.98;18.73;;;14.20;82.00;;;;;;4946483;29;20039;-72
2022/04/08 07:55:13;;;;;;;31.75;20.15;;;14.30;82.90;;;;;;4951652;29;20047;-71
2022/04/08 07:57:49;;;;;;;31.48;21.58;;;14.30;82.70;;;;;;4937885;29;20766;-71
2022/04/08 08:00:21;;;;;;;27.27;20.60;;;14.40;82.20;;;;;;4937854;29;20063;-72
2022/04/08 08:02:47;;;;;;;32.78;21.98;;;14.40;82.20;;;;;;4937374;29;20071;-72
2022/04/08 08:05:13;;;;;;;33.45;23.13;;;14.40;82.20;;;;;;4938176;29;20036;-72
2022/04/08 08:07:50;;;;;;;33.45;22.98;;;14.40;82.10;;;;;;4938321;29;20083;-72
2022/04/08 08:10:23;;;;;;;32.92;22.30;;;14.40;81.80;;;;;;4937527;29;20095;-71
2022/04/08 08:12:49;;;;;;;35.20;25.40;;;14.60;82.40;;;;;;4939185;29;20044;-71
2022/04/08 08:15:16;;;;;;;37.10;23.75;;;14.60;81.70;;;;;;4945882;29;20047;-71
2022/04/08 08:17:42;;;;;;;35.97;25.20;;;14.70;81.80;;;;;;4937295;29;20078;-71
2022/04/08 08:20:10;;;;;;;32.22;24.02;;;14.70;81.00;;;;;;4938013;29;20040;-71
2022/04/08 08:22:36;;;;;;;33.22;24.00;;;14.70;81.30;;;;;;4920515;29;20465;-71
2022/04/08 08:25:04;;;;;;;34.72;24.80;;;14.70;81.00;;;;;;4937447;29;20492;-71
2022/04/08 08:27:54;;;;;;;40.80;27.98;;;14.80;80.90;;;;;;4935110;29;20040;-71
2022/04/08 08:30:20;;;;;;;36.85;26.02;;;14.70;81.00;;;;;;4915378;29;20131;-71
2022/04/08 08:32:47;;;;;;;35.67;25.05;;;14.70;81.40;;;;;;4918611;29;20180;-71
2022/04/08 08:35:17;;;;;;;33.40;26.02;;;14.70;81.70;;;;;;4937344;29;20055;-71
2022/04/08 08:37:43;;;;;;;37.75;26.55;;;14.80;81.70;;;;;;4936532;29;20079;-72
2022/04/08 08:40:11;;;;;;;39.30;29.67;;;14.90;82.10;;;;;;4936743;29;20047;-72
2022/04/08 08:42:38;;;;;;;40.75;30.42;;;14.80;81.60;;;;;;4936740;29;20068;-70
2022/04/08 08:45:05;;;;;;;39.85;28.08;;;14.90;81.80;;;;;;4939524;29;20079;-70
2022/04/08 08:47:31;;;;;;;38.55;26.02;;;14.90;82.00;;;;;;4935753;29;20400;-70
2022/04/08 08:49:57;;;;;;;39.25;26.27;;;15.00;82.30;;;;;;4947703;29;20054;-70
2022/04/08 08:52:23;;;;;;;33.03;25.33;;;15.20;82.10;;;;;;4936891;29;20036;-71
2022/04/08 08:54:50;;;;;;;40.08;26.80;;;15.30;82.30;;;;;;4936969;29;20043;-71
2022/04/08 08:57:20;;;;;;;34.53;25.88;;;15.40;81.70;;;;;;4936992;29;20044;-71
2022/04/08 08:59:46;;;;;;;34.90;25.63;;;15.50;81.60;;;;;;4936733;29;20040;-71
2022/04/08 09:02:18;;;;;;;37.97;27.38;;;15.60;81.60;;;;;;4942076;28;20050;-71
2022/04/08 09:04:44;;;;;;;36.65;26.27;;;15.70;80.90;;;;;;4936367;29;20040;-71
2022/04/08 09:07:21;;;;;;;35.40;26.08;;;15.80;81.30;;;;;;4932572;29;20095;-75
2022/04/08 09:09:52;;;;;;;41.03;30.98;;;15.90;80.90;;;;;;4933959;29;20067;-71
2022/04/08 09:12:19;;;;;;;37.10;28.67;;;16.00;80.00;;;;;;4918024;29;20054;-72
2022/04/08 09:14:56;;;;;;;41.25;26.60;;;15.90;80.30;;;;;;4934863;29;20070;-72
2022/04/08 09:17:25;;;;;;;40.20;27.20;;;15.90;81.40;;;;;;4934870;29;20107;-71
2022/04/08 09:19:56;;;;;;;41.25;27.65;;;16.00;80.80;;;;;;4936551;29;20480;-71
2022/04/08 09:22:29;;;;;;;30.25;24.05;;;16.10;80.80;;;;;;4935575;29;20088;-72
2022/04/08 09:25:04;;;;;;;28.80;19.40;;;16.30;81.00;;;;;;4935388;29;20481;-70
2022/04/08 09:27:33;;;;;;;33.33;23.67;;;16.50;82.40;;;;;;4927764;29;20040;-70
2022/04/08 09:29:59;;;;;;;37.50;26.85;;;16.60;80.70;;;;;;4935634;29;20059;-72
2022/04/08 09:32:27;;;;;;;36.25;25.77;;;16.80;78.90;;;;;;4935419;29;20040;-72
2022/04/08 09:34:53;;;;;;;38.80;25.90;;;16.80;77.70;;;;;;4934945;29;20047;-72
2022/04/08 09:37:19;;;;;;;25.27;17.40;;;16.90;78.50;;;;;;4931657;29;20063;-73
2022/04/08 09:40:05;;;;;;;32.80;20.60;;;17.10;80.50;;;;;;4931221;28;20087;-80
2022/04/08 09:42:45;;;;;;;30.55;20.23;;;17.40;77.60;;;;;;4938004;29;20039;-79
2022/04/08 09:45:12;;;;;;;25.60;18.42;;;17.50;78.00;;;;;;4944936;29;20512;-79
2022/04/08 09:47:38;;;;;;;28.58;19.58;;;17.70;77.30;;;;;;4923276;29;20035;-79
2022/04/08 09:50:10;;;;;;;31.73;20.50;;;17.90;76.70;;;;;;4945507;29;20043;-78
2022/04/08 09:52:40;;;;;;;31.55;20.52;;;17.90;75.00;;;;;;4933327;29;20036;-78
2022/04/08 09:55:08;;;;;;;25.60;18.55;;;18.10;75.00;;;;;;4918230;29;20193;-70
2022/04/08 09:57:37;;;;;;;28.58;18.20;;;18.30;75.30;;;;;;4937959;29;20043;-71
2022/04/08 10:00:05;;;;;;;26.30;18.45;;;18.50;74.00;;;;;;4917190;29;20488;-71
2022/04/08 10:02:33;;;;;;;32.00;22.33;;;18.80;73.10;;;;;;4943353;29;20082;-72
2022/04/08 10:04:59;;;;;;;32.70;18.15;;;18.90;70.90;;;;;;4954527;29;20039;-78
2022/04/08 10:07:26;;;;;;;30.60;20.48;;;19.10;72.30;;;;;;4933409;29;20642;-78
2022/04/08 10:10:07;;;;;;;31.02;21.42;;;19.00;70.40;;;;;;4934842;29;20488;-78
2022/04/08 10:13:04;;;;;;;25.48;17.25;;;19.20;71.10;;;;;;4928916;29;20049;-78
2022/04/08 10:15:42;;;;;;;24.33;17.92;;;19.40;69.80;;;;;;4918506;29;20058;-77
2022/04/08 10:18:09;;;;;;;28.00;18.42;;;19.50;70.80;;;;;;4920341;29;20054;-78
2022/04/08 10:20:37;;;;;;;25.85;18.20;;;19.70;70.40;;;;;;4944297;29;20054;-71
2022/04/08 10:23:15;;;;;;;22.90;17.10;;;19.80;69.60;;;;;;4934427;29;20552;-70
2022/04/08 10:25:50;;;;;;;25.95;19.52;;;20.00;69.40;;;;;;4938853;29;20032;-70
2022/04/08 10:28:16;;;;;;;24.90;16.73;;;20.30;67.80;;;;;;4932753;29;20042;-70
2022/04/08 10:30:47;;;;;;;31.08;19.27;;;20.40;67.90;;;;;;4941433;29;20380;-72
2022/04/08 10:33:22;;;;;;;30.90;19.75;;;20.40;66.80;;;;;;4933480;29;20040;-72
2022/04/08 10:36:04;;;;;;;32.58;20.50;;;20.40;66.20;;;;;;4916456;29;20052;-72
2022/04/08 10:38:37;;;;;;;25.95;17.92;;;20.30;65.10;;;;;;4933891;29;20118;-79
2022/04/08 10:41:07;;;;;;;23.75;16.52;;;20.30;67.10;;;;;;4951993;29;20055;-77
2022/04/08 10:43:45;;;;;;;26.08;16.33;;;20.50;66.90;;;;;;4946180;29;20550;-79
2022/04/08 10:46:12;;;;;;;25.70;17.42;;;20.60;66.70;;;;;;4952813;29;20432;-79
2022/04/08 10:48:38;;;;;;;27.70;19.45;;;20.80;66.10;;;;;;4953631;29;20399;-77
2022/04/08 10:51:14;;;;;;;26.02;17.35;;;20.80;64.40;;;;;;4949456;29;20118;-79
2022/04/08 10:53:42;;;;;;;25.77;15.45;;;20.70;65.40;;;;;;4935114;29;20127;-79
2022/04/08 10:56:13;;;;;;;22.30;14.82;;;20.70;65.30;;;;;;4919755;29;20049;-78
2022/04/08 10:58:42;;;;;;;;;;;20.70;65.10;;;;;;4918802;29;20036;-79
2022/04/08 11:01:27;;;;;;;21.07;14.43;;;20.80;65.30;;;;;;4945200;29;19918;-78
2022/04/08 11:04:04;;;;;;;33.40;20.98;;;20.90;64.40;;;;;;4936322;29;20263;-72
2022/04/08 11:06:32;;;;;;;35.92;23.67;;;20.90;63.70;;;;;;4938091;29;20035;-72
2022/04/08 11:09:12;;;;;;;22.70;16.98;;;20.50;65.00;;;;;;4943872;29;20365;-71
2022/04/08 11:11:39;;;;;;;33.70;20.63;;;20.40;66.70;;;;;;4937558;29;20042;-71
2022/04/08 11:14:06;;;;;;;23.17;16.95;;;20.60;65.20;;;;;;4944246;29;20032;-72
2022/04/08 11:16:38;;;;;;;21.95;14.77;;;20.80;65.20;;;;;;4938999;29;20098;-71
2022/04/08 11:19:08;;;;;;;25.73;14.98;;;21.10;64.00;;;;;;4944210;29;20070;-73
2022/04/08 11:21:36;;;;;;;19.45;12.50;;;21.30;64.70;;;;;;4953124;29;20051;-71
2022/04/08 11:24:07;;;;;;;20.10;13.52;;;21.60;65.10;;;;;;4944181;29;20067;-71
2022/04/08 11:26:53;;;;;;;23.58;15.23;;;21.90;64.00;;;;;;4934553;29;20039;-71
2022/04/08 11:29:27;;;;;;;19.98;13.55;;;22.30;62.10;;;;;;4932970;29;20056;-71
2022/04/08 11:32:10;;;;;;;25.40;16.30;;;22.50;62.60;;;;;;4925219;29;20047;-72
2022/04/08 11:34:36;;;;;;;24.73;14.73;;;22.80;60.50;;;;;;4929321;29;20492;-80
2022/04/08 11:37:02;;;;;;;26.08;15.70;;;23.20;59.20;;;;;;4921493;29;20123;-72
2022/04/08 11:39:30;;;;;;;24.35;15.55;;;23.50;58.30;;;;;;4925692;29;20523;-73
2022/04/08 11:41:57;;;;;;;25.80;17.33;;;23.80;56.70;;;;;;4931148;29;20393;-73
2022/04/08 11:44:24;;;;;;;29.08;16.30;;;24.10;55.50;;;;;;4929065;29;20074;-80
2022/04/08 11:46:50;;;;;;;26.23;16.73;;;24.40;55.60;;;;;;4927814;28;20043;-73
2022/04/08 11:49:18;;;;;;;23.75;15.50;;;24.50;53.60;;;;;;4936229;29;20036;-72
2022/04/08 11:51:45;;;;;;;25.60;16.30;;;24.80;54.10;;;;;;4931498;29;20401;-79
2022/04/08 11:54:11;;;;;;;29.23;17.23;;;25.20;52.90;;;;;;4931657;29;20048;-81
2022/04/08 11:56:37;;;;;;;19.77;13.80;;;25.50;51.40;;;;;;4926001;29;20044;-81
2022/04/08 11:59:08;;;;;;;28.23;18.00;;;25.60;52.10;;;;;;4927359;29;20560;-81
2022/04/08 12:01:39;;;;;;;25.83;16.30;;;25.50;49.90;;;;;;4932454;29;20024;-72
2022/04/08 12:04:11;;;;;;;24.10;15.00;;;25.10;51.30;;;;;;4930917;29;20040;-80
2022/04/08 12:06:45;;;;;;;21.98;14.75;;;25.50;51.50;;;;;;4930440;29;20032;-73
2022/04/08 12:09:14;;;;;;;34.42;19.63;;;25.50;50.70;;;;;;4930169;29;20051;-72
2022/04/08 12:11:42;;;;;;;31.08;21.35;;;25.60;52.90;;;;;;4931451;29;20115;-72
2022/04/08 12:14:09;;;;;;;29.98;22.77;;;25.70;51.60;;;;;;4928555;29;20103;-72
2022/04/08 12:16:40;;;;;;;34.22;23.60;;;25.30;52.00;;;;;;4926744;29;20087;-72
2022/04/08 12:19:08;;;;;;;30.73;23.95;;;24.90;52.90;;;;;;4937232;28;20500;-71
2022/04/08 12:21:35;;;;;;;31.23;24.90;;;24.80;54.00;;;;;;4911868;29;20396;-71
2022/04/08 12:24:03;;;;;;;30.25;23.88;;;24.80;54.00;;;;;;4926177;29;20533;-72
2022/04/08 12:26:34;;;;;;;35.42;25.15;;;24.80;54.50;;;;;;4926413;29;20044;-72
2022/04/08 12:29:14;;;;;;;33.13;23.50;;;24.70;52.90;;;;;;4925634;29;20040;-73
2022/04/08 12:31:50;;;;;;;33.13;22.55;;;24.80;52.80;;;;;;4927984;29;20048;-72